Date,TemperatureHighF,TemperatureAvgF,TemperatureLowF,DewpointHighF,DewpointAvgF,DewpointLowF,HumidityHigh,HumidityAvg,HumidityLow,PressureMaxIn,PressureMinIn,WindSpeedMaxMPH,WindSpeedAvgMPH,GustSpeedMaxMPH,PrecipitationSumIn
2013-7-1,83,78,75,72,68,62,83,70,53,30.00,29.85,12,3,12,0.00
2013-7-2,87,78,75,70,67,62,82,68,45,30.18,30.00,15,4,15,0.00
2013-7-3,89,77,73,75,69,63,90,79,43,30.24,30.18,13,2,13,1.46
2013-7-4,91,81,73,73,68,62,95,68,40,30.26,30.18,12,3,12,0.00
2013-7-5,93,84,75,71,65,58,83,56,33,30.24,30.12,13,4,13,0.00
2013-7-6,95,85,75,73,64,57,82,51,31,30.18,30.06,13,3,13,0.00
2013-7-7,94,82,73,66,63,57,72,54,32,30.12,30.00,20,4,20,0.00
2013-7-8,90,79,72,68,61,53,85,57,31,30.09,30.03,14,3,14,0.00
2013-7-9,86,80,74,68,64,59,73,59,44,30.12,30.00,13,2,13,0.00
2013-7-10,90,81,75,71,67,60,83,63,39,30.03,29.85,13,3,13,0.00
2013-7-11,87,78,74,69,63,54,83,62,34,29.94,29.85,12,3,12,0.00
2013-7-12,75,71,68,68,65,58,91,82,59,30.03,29.91,14,4,14,1.18
2013-7-13,88,77,70,72,67,62,96,75,44,30.30,30.00,7,1,7,0.20
2013-7-14,91,81,72,76,67,59,94,66,37,30.35,30.26,8,1,8,0.00
2013-7-15,96,84,72,75,64,58,86,56,30,30.32,30.18,12,3,12,0.00
2013-7-16,94,89,79,73,70,67,83,56,44,30.24,30.18,13,4,13,0.00
2013-7-17,95,85,74,78,72,65,92,67,40,30.24,30.09,13,2,13,0.00
2013-7-18,97,86,76,79,75,73,92,72,48,30.12,30.00,10,2,10,0.00
2013-7-19,98,87,76,79,75,69,89,69,45,30.03,29.85,16,3,16,0.16
2013-7-20,94,83,74,76,72,69,91,71,48,29.91,29.79,14,3,14,0.00
2013-7-21,89,80,73,72,70,67,91,74,51,29.94,29.88,15,2,15,0.00
2013-7-22,90,80,73,78,74,71,96,81,56,29.94,29.73,13,2,13,0.28
2013-7-23,88,79,72,75,71,66,97,76,50,29.76,29.65,16,3,16,0.08
2013-7-24,84,76,70,69,65,56,88,68,50,29.94,29.67,15,3,15,0.00
2013-7-25,78,69,61,64,57,52,84,66,56,30.06,29.91,15,5,15,0.00
2013-7-26,85,74,65,65,62,57,91,68,40,30.09,30.03,13,2,13,0.00
2013-7-27,87,75,66,72,67,62,93,77,51,30.06,29.94,14,2,14,0.12
2013-7-28,86,77,70,72,69,64,94,78,50,30.00,29.91,13,2,13,0.00
2013-7-29,83,74,65,67,59,53,91,63,39,30.18,30.00,13,4,13,0.00
2013-7-30,83,72,61,63,59,55,89,65,42,30.24,30.15,13,3,13,0.00
2013-7-31,81,73,64,68,64,61,91,74,56,30.18,30.03,9,1,9,0.00